createdAt,value
2022-12-18T00:00:32.343Z,9.60
2022-12-18T00:01:07.881Z,9.52
2022-12-18T00:01:41.830Z,9.73
2022-12-18T00:02:17.777Z,9.23
2022-12-18T00:02:53.589Z,9.38
2022-12-18T00:03:27.687Z,9.43
2022-12-18T00:04:04.717Z,9.18
2022-12-18T00:04:39.243Z,8.93
2022-12-18T00:05:15.063Z,9.90
2022-12-18T00:05:50.866Z,9.90
2022-12-18T00:06:26.102Z,9.18
2022-12-18T00:07:03.002Z,8.57
2022-12-18T00:07:38.130Z,9.43
2022-12-18T00:08:11.713Z,9.07
2022-12-18T00:08:47.826Z,9.63
2022-12-18T00:09:22.789Z,9.38
2022-12-18T00:10:01.198Z,8.80
2022-12-18T00:10:35.497Z,9.88
2022-12-18T00:11:10.192Z,9.35
2022-12-18T00:11:45.510Z,9.25
2022-12-18T00:12:20.396Z,9.02
2022-12-18T00:12:56.001Z,9.85
2022-12-18T00:13:31.359Z,9.25
2022-12-18T00:14:05.919Z,8.75
2022-12-18T00:14:42.539Z,9.88
2022-12-18T00:15:17.009Z,8.55
2022-12-18T00:15:52.111Z,8.98
2022-12-18T00:16:37.003Z,9.73
2022-12-18T00:17:11.227Z,8.80
2022-12-18T00:17:47.947Z,9.30
2022-12-18T00:18:21.172Z,9.20
2022-12-18T00:18:57.461Z,9.55
2022-12-18T00:19:33.525Z,9.40
2022-12-18T00:20:10.375Z,9.68
2022-12-18T00:20:45.238Z,9.43
2022-12-18T00:21:19.389Z,9.07
2022-12-18T00:21:53.613Z,9.50
2022-12-18T00:22:29.530Z,9.65
2022-12-18T00:23:04.195Z,8.93
2022-12-18T00:23:40.119Z,9.30
2022-12-18T00:24:14.294Z,9.02
2022-12-18T00:24:48.208Z,9.15
2022-12-18T00:25:22.655Z,9.65
2022-12-18T00:25:58.051Z,8.80
2022-12-18T00:26:33.965Z,8.52
2022-12-18T00:27:08.782Z,8.85
2022-12-18T00:27:44.346Z,9.15
2022-12-18T00:28:17.887Z,9.05
2022-12-18T00:28:52.117Z,8.68
2022-12-18T00:29:27.253Z,9.48
2022-12-18T00:30:03.588Z,9.35
2022-12-18T00:30:37.979Z,9.32
2022-12-18T00:31:14.042Z,8.88
2022-12-18T00:31:48.219Z,9.30
2022-12-18T00:32:22.655Z,8.75
2022-12-18T00:32:58.141Z,9.02
2022-12-18T00:33:32.952Z,9.02
2022-12-18T00:34:06.865Z,9.05
2022-12-18T00:34:42.344Z,8.55
2022-12-18T00:35:16.446Z,9.00
2022-12-18T00:35:51.034Z,8.65
2022-12-18T00:36:27.575Z,9.20
2022-12-18T00:37:02.230Z,8.45
2022-12-18T00:37:37.289Z,8.32
2022-12-18T00:38:13.527Z,9.15
2022-12-18T00:38:47.681Z,8.98
2022-12-18T00:39:25.801Z,8.77
2022-12-18T00:39:59.393Z,8.68
2022-12-18T00:40:33.796Z,9.10
2022-12-18T00:41:08.805Z,7.88
2022-12-18T00:42:00.695Z,8.93
2022-12-18T00:42:53.172Z,8.35
2022-12-18T00:43:27.673Z,7.85
2022-12-18T00:44:01.311Z,7.97
2022-12-18T00:44:34.101Z,8.65
2022-12-18T00:45:12.877Z,7.50
2022-12-18T00:45:48.392Z,8.70
2022-12-18T00:46:23.322Z,8.25
2022-12-18T00:46:57.159Z,9.05
2022-12-18T00:47:32.084Z,8.43
2022-12-18T00:48:07.874Z,9.00
2022-12-18T00:48:44.562Z,8.38
2022-12-18T00:49:30.402Z,9.00
2022-12-18T00:50:06.336Z,9.02
2022-12-18T00:50:39.607Z,8.65
2022-12-18T00:51:15.632Z,8.63
2022-12-18T00:51:49.320Z,8.25
2022-12-18T00:52:23.254Z,7.88
2022-12-18T00:52:57.711Z,8.05
2022-12-18T00:53:31.863Z,7.85
2022-12-18T00:54:06.515Z,8.18
2022-12-18T00:54:42.736Z,8.80
2022-12-18T00:55:18.238Z,8.25
2022-12-18T00:55:55.042Z,8.70
2022-12-18T00:56:29.503Z,8.25
2022-12-18T00:57:02.855Z,8.25
2022-12-18T00:57:36.192Z,8.43
2022-12-18T00:58:11.756Z,8.18
2022-12-18T00:58:45.666Z,8.07
2022-12-18T00:59:21.501Z,8.68
2022-12-18T00:59:57.068Z,8.48
2022-12-18T01:00:33.840Z,8.77
2022-12-18T01:01:07.276Z,8.27
2022-12-18T01:01:42.846Z,8.85
2022-12-18T01:02:18.986Z,8.32
2022-12-18T01:02:53.598Z,8.50
2022-12-18T01:03:27.675Z,8.13
2022-12-18T01:04:03.432Z,8.32
2022-12-18T01:04:37.418Z,8.35
2022-12-18T01:05:13.896Z,8.95
2022-12-18T01:05:49.884Z,8.60
2022-12-18T01:06:25.571Z,8.00
2022-12-18T01:07:00.442Z,8.85
2022-12-18T01:07:35.816Z,7.90
2022-12-18T01:08:09.752Z,9.27
2022-12-18T01:08:44.031Z,8.20
2022-12-18T01:09:21.220Z,8.10
2022-12-18T01:09:55.668Z,8.63
2022-12-18T01:10:29.545Z,8.63
2022-12-18T01:11:11.904Z,8.52
2022-12-18T01:11:44.853Z,8.40
2022-12-18T01:12:18.135Z,8.80
2022-12-18T01:12:52.628Z,8.63
2022-12-18T01:13:27.084Z,8.93
2022-12-18T01:14:01.957Z,8.55
2022-12-18T01:14:37.267Z,8.30
2022-12-18T01:15:13.509Z,8.32
2022-12-18T01:15:51.969Z,8.18
2022-12-18T01:16:26.894Z,8.32
2022-12-18T01:17:01.828Z,7.70
2022-12-18T01:17:35.040Z,7.90
2022-12-18T01:18:09.826Z,8.57
2022-12-18T01:18:43.546Z,8.40
2022-12-18T01:19:17.588Z,8.23
2022-12-18T01:19:55.992Z,8.48
2022-12-18T01:20:29.629Z,8.50
2022-12-18T01:21:08.255Z,8.35
2022-12-18T01:21:44.570Z,7.47
2022-12-18T01:22:18.421Z,7.97
2022-12-18T01:22:51.657Z,8.45
2022-12-18T01:23:28.742Z,8.55
2022-12-18T01:24:03.739Z,8.30
2022-12-18T01:24:37.439Z,7.72
2022-12-18T01:25:11.685Z,8.07
2022-12-18T01:25:45.067Z,8.27
2022-12-18T01:26:19.342Z,7.90
2022-12-18T01:26:55.116Z,7.80
2022-12-18T01:27:30.227Z,8.25
2022-12-18T01:28:06.276Z,8.10
2022-12-18T01:28:39.745Z,7.75
2022-12-18T01:29:15.923Z,8.30
2022-12-18T01:29:50.793Z,7.95
2022-12-18T01:30:26.715Z,7.90
2022-12-18T01:31:13.785Z,7.88
2022-12-18T01:31:47.504Z,7.88
2022-12-18T01:32:22.374Z,8.88
2022-12-18T01:32:56.871Z,7.97
2022-12-18T01:33:29.972Z,8.55
2022-12-18T01:34:04.824Z,7.57
2022-12-18T01:34:39.698Z,7.88
2022-12-18T01:35:13.833Z,8.48
2022-12-18T01:35:48.817Z,8.25
2022-12-18T01:36:24.833Z,8.07
2022-12-18T01:36:59.449Z,8.55
2022-12-18T01:37:34.768Z,7.70
2022-12-18T01:38:09.302Z,8.32
2022-12-18T01:38:42.734Z,8.27
2022-12-18T01:39:18.236Z,8.27
2022-12-18T01:39:54.186Z,7.53
2022-12-18T01:40:27.983Z,8.52
2022-12-18T01:41:02.375Z,8.25
2022-12-18T01:41:51.020Z,7.95
2022-12-18T01:42:27.230Z,7.75
2022-12-18T01:43:01.167Z,7.88
2022-12-18T01:43:49.720Z,8.30
2022-12-18T01:44:59.443Z,7.80
2022-12-18T01:45:34.035Z,7.70
2022-12-18T01:46:10.400Z,7.90
2022-12-18T01:46:45.881Z,8.25
2022-12-18T01:47:24.512Z,7.88
2022-12-18T01:47:59.952Z,7.70
2022-12-18T01:48:35.515Z,7.93
2022-12-18T01:49:09.862Z,8.45
2022-12-18T01:49:45.195Z,8.52
2022-12-18T01:50:24.139Z,8.02
2022-12-18T01:51:02.573Z,7.88
2022-12-18T01:51:37.998Z,8.30
2022-12-18T01:52:14.300Z,7.45
2022-12-18T01:52:51.140Z,7.75
2022-12-18T01:53:25.184Z,7.45
2022-12-18T01:54:01.253Z,7.90
2022-12-18T01:54:35.160Z,7.53
2022-12-18T01:55:09.496Z,7.88
2022-12-18T01:55:49.435Z,8.25
2022-12-18T01:56:23.970Z,8.00
2022-12-18T01:56:58.735Z,8.13
2022-12-18T01:57:34.078Z,7.70
2022-12-18T01:58:08.906Z,8.30
2022-12-18T01:58:47.753Z,8.32
2022-12-18T01:59:23.386Z,7.95
2022-12-18T02:00:02.363Z,7.63
2022-12-18T02:00:49.210Z,8.13
2022-12-18T02:01:26.729Z,7.53
2022-12-18T02:02:01.572Z,7.82
2022-12-18T02:02:37.364Z,7.40
2022-12-18T02:03:11.320Z,8.45
2022-12-18T02:03:48.027Z,8.18
2022-12-18T02:04:25.318Z,7.80
2022-12-18T02:04:59.807Z,8.13
2022-12-18T02:05:46.980Z,8.65
2022-12-18T02:06:28.214Z,8.68
2022-12-18T02:07:08.529Z,8.68
2022-12-18T02:07:55.563Z,7.55
2022-12-18T02:08:35.927Z,7.63
2022-12-18T02:09:14.124Z,7.68
2022-12-18T02:09:51.199Z,7.45
2022-12-18T02:10:30.134Z,8.38
2022-12-18T02:11:09.651Z,7.43
2022-12-18T02:11:56.746Z,7.78
2022-12-18T02:12:39.383Z,7.43
2022-12-18T02:13:19.411Z,7.53
2022-12-18T02:14:24.819Z,6.95
2022-12-18T02:15:09.597Z,7.43
2022-12-18T02:15:57.256Z,7.32
2022-12-18T02:16:41.745Z,6.95
2022-12-18T02:17:21.953Z,7.70
2022-12-18T02:18:01.105Z,8.25
2022-12-18T02:18:38.198Z,8.18
2022-12-18T02:19:22.761Z,8.43
2022-12-18T02:20:10.431Z,7.75
2022-12-18T02:20:49.929Z,8.02
2022-12-18T02:21:33.331Z,7.60
2022-12-18T02:22:27.522Z,7.25
2022-12-18T02:23:14.156Z,7.50
2022-12-18T02:23:57.047Z,7.25
2022-12-18T02:24:36.954Z,7.63
2022-12-18T02:25:26.492Z,7.97
2022-12-18T02:26:20.740Z,7.70
2022-12-18T02:26:59.822Z,7.63
2022-12-18T02:27:37.129Z,7.82
2022-12-18T02:28:15.154Z,7.75
2022-12-18T02:28:53.511Z,7.40
2022-12-18T02:29:31.436Z,8.15
2022-12-18T02:30:07.871Z,7.38
2022-12-18T02:30:42.553Z,7.50
2022-12-18T02:31:22.079Z,7.30
2022-12-18T02:32:00.302Z,7.60
2022-12-18T02:32:42.644Z,7.72
2022-12-18T02:33:17.746Z,7.07
2022-12-18T02:33:54.731Z,7.07
2022-12-18T02:34:31.859Z,7.70
2022-12-18T02:35:08.150Z,7.50
2022-12-18T02:35:44.918Z,8.18
2022-12-18T02:36:21.923Z,7.80
2022-12-18T02:36:59.262Z,8.02
2022-12-18T02:37:37.078Z,7.53
2022-12-18T02:38:15.575Z,7.20
2022-12-18T02:38:53.785Z,7.30
2022-12-18T02:39:32.951Z,7.07
2022-12-18T02:40:13.032Z,7.18
2022-12-18T02:40:47.743Z,7.28
2022-12-18T02:41:27.193Z,7.10
2022-12-18T02:42:04.120Z,7.20
2022-12-18T02:42:38.461Z,7.63
2022-12-18T02:43:17.681Z,7.43
2022-12-18T02:43:57.347Z,7.30
2022-12-18T02:44:32.079Z,7.95
2022-12-18T02:45:08.934Z,8.70
2022-12-18T02:45:49.464Z,7.18
2022-12-18T02:46:34.071Z,13.43
2022-12-18T02:47:13.431Z,22.08
2022-12-18T02:47:50.457Z,8.20
2022-12-18T02:48:28.225Z,8.10
2022-12-18T02:49:10.301Z,7.97
2022-12-18T02:49:56.339Z,7.32
2022-12-18T02:50:43.496Z,7.55
2022-12-18T02:51:22.162Z,6.97
2022-12-18T02:52:03.533Z,7.18
2022-12-18T02:52:45.037Z,7.65
2022-12-18T02:53:26.742Z,7.55
2022-12-18T02:54:08.980Z,7.55
2022-12-18T02:54:57.282Z,7.18
2022-12-18T02:55:43.558Z,6.93
2022-12-18T02:56:24.541Z,6.28
2022-12-18T02:57:02.892Z,7.28
2022-12-18T02:57:44.566Z,7.00
2022-12-18T02:58:24.240Z,7.32
2022-12-18T02:59:03.783Z,7.00
2022-12-18T02:59:54.210Z,7.40
2022-12-18T03:00:33.417Z,7.53
2022-12-18T03:01:14.749Z,7.57
2022-12-18T03:01:55.335Z,7.22
2022-12-18T03:02:36.909Z,7.50
2022-12-18T03:03:16.958Z,7.55
2022-12-18T03:03:57.520Z,6.95
2022-12-18T03:04:36.584Z,6.80
2022-12-18T03:05:19.148Z,6.88
2022-12-18T03:05:57.423Z,7.07
2022-12-18T03:06:35.913Z,7.35
2022-12-18T03:07:18.146Z,7.13
2022-12-18T03:07:58.819Z,7.15
2022-12-18T03:08:40.844Z,7.22
2022-12-18T03:09:53.582Z,7.45
2022-12-18T03:10:31.196Z,6.97
2022-12-18T03:11:11.772Z,7.13
2022-12-18T03:12:13.051Z,7.85
2022-12-18T03:12:53.108Z,6.72
2022-12-18T03:13:34.598Z,6.88
2022-12-18T03:14:11.066Z,7.15
2022-12-18T03:14:47.737Z,7.78
2022-12-18T03:15:29.692Z,7.05
2022-12-18T03:16:16.356Z,7.28
2022-12-18T03:16:53.671Z,4.97
2022-12-18T03:17:31.655Z,7.60
2022-12-18T03:18:12.745Z,7.28
2022-12-18T03:18:51.693Z,7.22
2022-12-18T03:19:28.445Z,7.18
2022-12-18T03:20:10.778Z,7.57
2022-12-18T03:20:49.625Z,7.80
2022-12-18T03:21:35.662Z,6.93
2022-12-18T03:22:11.569Z,7.45
2022-12-18T03:22:59.377Z,7.60
2022-12-18T03:23:39.631Z,7.28
2022-12-18T03:24:19.472Z,7.15
2022-12-18T03:24:55.926Z,8.25
2022-12-18T03:25:34.110Z,7.78
2022-12-18T03:26:12.270Z,7.35
2022-12-18T03:26:54.799Z,7.63
2022-12-18T03:27:32.130Z,7.85
2022-12-18T03:28:14.888Z,6.80
2022-12-18T03:28:52.998Z,7.32
2022-12-18T03:29:30.286Z,7.40
2022-12-18T03:30:09.220Z,7.78
2022-12-18T03:30:48.391Z,7.90
2022-12-18T03:31:24.964Z,7.65
2022-12-18T03:32:05.124Z,7.45
2022-12-18T03:32:45.655Z,7.22
2022-12-18T03:33:23.174Z,7.93
2022-12-18T03:34:01.760Z,7.25
2022-12-18T03:34:48.149Z,7.15
2022-12-18T03:35:27.163Z,7.05
2022-12-18T03:36:02.329Z,7.47
2022-12-18T03:36:36.795Z,7.07
2022-12-18T03:37:10.885Z,7.47
2022-12-18T03:37:45.848Z,7.97
2022-12-18T03:38:20.589Z,7.85
2022-12-18T03:38:59.992Z,7.10
2022-12-18T03:39:34.356Z,7.07
2022-12-18T03:40:09.968Z,7.68
2022-12-18T03:40:54.216Z,7.93
2022-12-18T03:41:33.953Z,7.43
2022-12-18T03:42:40.897Z,7.45
2022-12-18T03:43:30.111Z,7.70
2022-12-18T03:44:10.134Z,7.35
2022-12-18T03:44:55.547Z,7.28
2022-12-18T03:45:35.205Z,8.20
2022-12-18T03:46:16.576Z,7.68
2022-12-18T03:47:00.252Z,7.22
2022-12-18T03:47:42.017Z,7.05
2022-12-18T03:48:20.615Z,7.25
2022-12-18T03:49:01.767Z,6.85
2022-12-18T03:49:41.164Z,8.18
2022-12-18T03:50:19.465Z,7.25
2022-12-18T03:50:59.539Z,8.10
2022-12-18T03:51:42.627Z,12.75
2022-12-18T03:52:23.212Z,8.20
2022-12-18T03:53:02.897Z,7.20
2022-12-18T03:53:45.014Z,7.15
2022-12-18T03:54:20.268Z,7.90
2022-12-18T03:55:04.126Z,7.28
2022-12-18T03:55:41.736Z,7.78
2022-12-18T03:56:18.060Z,8.23
2022-12-18T03:56:58.938Z,7.55
2022-12-18T03:57:35.434Z,8.18
2022-12-18T03:58:14.984Z,7.30
2022-12-18T03:59:07.137Z,6.88
2022-12-18T03:59:42.457Z,7.63
2022-12-18T04:00:19.697Z,7.03
2022-12-18T04:01:06.936Z,7.72
2022-12-18T04:01:44.804Z,7.43
2022-12-18T04:02:22.332Z,7.20
2022-12-18T04:02:59.785Z,8.20
2022-12-18T04:03:43.716Z,6.97
2022-12-18T04:04:19.959Z,7.25
2022-12-18T04:04:57.729Z,8.13
2022-12-18T04:05:34.731Z,7.30
2022-12-18T04:06:10.206Z,8.23
2022-12-18T04:06:48.138Z,7.88
2022-12-18T04:07:22.059Z,8.30
2022-12-18T04:07:57.748Z,7.38
2022-12-18T04:08:33.002Z,7.20
2022-12-18T04:09:12.041Z,7.85
2022-12-18T04:09:52.678Z,7.60
2022-12-18T04:10:32.057Z,7.38
2022-12-18T04:11:07.605Z,7.20
2022-12-18T04:11:45.374Z,7.47
2022-12-18T04:12:21.883Z,7.57
2022-12-18T04:12:58.310Z,7.60
2022-12-18T04:13:36.501Z,7.75
2022-12-18T04:14:17.872Z,7.47
2022-12-18T04:14:56.984Z,7.70
2022-12-18T04:15:32.791Z,7.18
2022-12-18T04:16:07.924Z,7.28
2022-12-18T04:16:42.710Z,7.45
2022-12-18T04:17:21.782Z,7.50
2022-12-18T04:17:56.515Z,7.80
2022-12-18T04:18:35.205Z,7.65
2022-12-18T04:19:10.124Z,7.43
2022-12-18T04:19:47.948Z,7.90
2022-12-18T04:20:21.866Z,7.05
2022-12-18T04:20:57.305Z,7.55
2022-12-18T04:21:31.851Z,7.93
2022-12-18T04:22:05.894Z,7.35
2022-12-18T04:22:47.255Z,6.72
2022-12-18T04:23:20.769Z,6.97
2022-12-18T04:23:56.028Z,7.82
2022-12-18T04:24:31.846Z,7.00
2022-12-18T04:25:19.456Z,6.97
2022-12-18T04:26:13.775Z,6.90
2022-12-18T04:27:12.173Z,7.30
2022-12-18T04:27:51.916Z,6.88
2022-12-18T04:28:26.842Z,7.10
2022-12-18T04:29:00.390Z,7.05
2022-12-18T04:29:36.865Z,7.65
2022-12-18T04:30:12.391Z,7.38
2022-12-18T04:30:46.815Z,7.75
2022-12-18T04:31:22.296Z,7.50
2022-12-18T04:31:57.462Z,7.35
2022-12-18T04:32:33.426Z,7.90
2022-12-18T04:33:12.160Z,7.05
2022-12-18T04:33:47.642Z,7.35
2022-12-18T04:34:22.115Z,8.00
2022-12-18T04:34:59.419Z,7.38
2022-12-18T04:35:34.357Z,7.55
2022-12-18T04:36:10.508Z,7.43
2022-12-18T04:36:45.522Z,7.90
2022-12-18T04:37:20.702Z,7.65
2022-12-18T04:37:56.520Z,7.43
2022-12-18T04:38:33.451Z,7.13
2022-12-18T04:39:13.117Z,7.15
2022-12-18T04:39:47.895Z,7.80
2022-12-18T04:40:29.279Z,9.32
2022-12-18T04:41:02.720Z,7.32
2022-12-18T04:41:37.456Z,7.25
2022-12-18T04:42:13.684Z,7.50
2022-12-18T04:42:47.554Z,7.28
2022-12-18T04:43:22.036Z,7.75
2022-12-18T04:43:57.025Z,6.97
2022-12-18T04:44:31.353Z,7.20
2022-12-18T04:45:10.409Z,6.88
2022-12-18T04:45:44.412Z,7.75
2022-12-18T04:46:17.223Z,6.68
2022-12-18T04:46:51.649Z,7.15
2022-12-18T04:47:27.896Z,6.78
2022-12-18T04:48:02.114Z,7.10
2022-12-18T04:48:38.622Z,7.40
2022-12-18T04:49:13.552Z,7.10
2022-12-18T04:49:48.542Z,7.40
2022-12-18T04:50:22.326Z,6.70
2022-12-18T04:50:58.055Z,6.90
2022-12-18T04:51:31.847Z,7.43
2022-12-18T04:52:18.838Z,7.40
2022-12-18T04:52:52.536Z,7.55
2022-12-18T04:53:27.179Z,6.63
2022-12-18T04:54:01.962Z,7.15
2022-12-18T04:54:35.325Z,7.05
2022-12-18T04:55:10.734Z,6.80
2022-12-18T04:55:45.749Z,6.90
2022-12-18T04:56:18.508Z,7.32
2022-12-18T04:56:52.928Z,7.05
2022-12-18T04:57:28.610Z,6.95
2022-12-18T04:58:03.646Z,7.65
2022-12-18T04:58:38.100Z,6.60
2022-12-18T04:59:14.880Z,6.78
2022-12-18T04:59:47.921Z,7.50
2022-12-18T05:00:23.163Z,6.70
2022-12-18T05:00:57.453Z,7.20
2022-12-18T05:01:34.808Z,7.18
2022-12-18T05:02:10.252Z,6.38
2022-12-18T05:02:46.131Z,7.00
2022-12-18T05:03:20.267Z,6.53
2022-12-18T05:03:54.463Z,6.22
2022-12-18T05:04:30.357Z,6.10
2022-12-18T05:05:05.166Z,6.45
2022-12-18T05:05:41.315Z,6.40
2022-12-18T05:06:15.997Z,6.53
2022-12-18T05:06:50.124Z,7.05
2022-12-18T05:07:24.603Z,7.13
2022-12-18T05:07:59.456Z,7.00
2022-12-18T05:08:33.594Z,6.78
2022-12-18T05:09:07.045Z,7.03
2022-12-18T05:09:41.963Z,6.82
2022-12-18T05:10:17.393Z,8.32
2022-12-18T05:10:51.477Z,7.13
2022-12-18T05:11:26.434Z,6.65
2022-12-18T05:12:00.860Z,7.38
2022-12-18T05:12:34.100Z,6.88
2022-12-18T05:13:08.931Z,6.68
2022-12-18T05:13:42.840Z,7.57
2022-12-18T05:14:16.329Z,6.75
2022-12-18T05:14:50.446Z,7.10
2022-12-18T05:15:26.421Z,7.38
2022-12-18T05:16:00.659Z,7.47
2022-12-18T05:16:36.725Z,6.65
2022-12-18T05:17:10.416Z,6.68
2022-12-18T05:17:46.360Z,6.95
2022-12-18T05:18:21.700Z,6.95
2022-12-18T05:18:55.981Z,7.03
2022-12-18T05:19:30.917Z,7.40
2022-12-18T05:20:07.910Z,6.78
2022-12-18T05:20:42.471Z,7.43
2022-12-18T05:21:16.272Z,6.88
2022-12-18T05:21:52.009Z,6.93
2022-12-18T05:22:27.609Z,6.90
2022-12-18T05:23:02.233Z,6.72
2022-12-18T05:23:40.582Z,6.93
2022-12-18T05:24:15.362Z,6.45
2022-12-18T05:24:50.567Z,6.88
2022-12-18T05:25:25.954Z,7.63
2022-12-18T05:26:02.380Z,6.53
2022-12-18T05:26:35.983Z,6.60
2022-12-18T05:27:09.649Z,7.05
2022-12-18T05:27:43.730Z,6.90
2022-12-18T05:28:17.664Z,6.90
2022-12-18T05:28:51.468Z,7.38
2022-12-18T05:29:27.780Z,7.95
2022-12-18T05:30:02.648Z,6.80
2022-12-18T05:30:39.774Z,6.60
2022-12-18T05:31:15.381Z,7.40
2022-12-18T05:31:49.720Z,7.00
2022-12-18T05:32:24.276Z,6.75
2022-12-18T05:32:59.229Z,6.47
2022-12-18T05:33:35.610Z,6.15
2022-12-18T05:34:09.690Z,7.13
2022-12-18T05:34:47.777Z,6.60
2022-12-18T05:35:20.606Z,6.72
2022-12-18T05:35:54.484Z,7.47
2022-12-18T05:36:30.547Z,6.80
2022-12-18T05:37:04.710Z,7.50
2022-12-18T05:37:42.960Z,7.75
2022-12-18T05:38:18.406Z,7.13
2022-12-18T05:38:53.305Z,7.15
2022-12-18T05:39:28.154Z,7.25
2022-12-18T05:40:04.201Z,6.93
2022-12-18T05:40:37.926Z,6.90
2022-12-18T05:41:13.081Z,7.20
2022-12-18T05:41:48.023Z,7.45
2022-12-18T05:42:22.050Z,6.78
2022-12-18T05:42:57.156Z,6.40
2022-12-18T05:43:31.480Z,6.47
2022-12-18T05:44:06.643Z,6.78
2022-12-18T05:44:41.491Z,6.43
2022-12-18T05:45:16.951Z,6.88
2022-12-18T05:45:55.503Z,7.22
2022-12-18T05:46:29.667Z,6.43
2022-12-18T05:47:03.657Z,6.90
2022-12-18T05:47:38.748Z,7.38
2022-12-18T05:48:18.206Z,7.55
2022-12-18T05:48:52.520Z,6.35
2022-12-18T05:49:30.059Z,7.40
2022-12-18T05:50:04.444Z,6.63
2022-12-18T05:50:39.085Z,6.97
2022-12-18T05:51:17.101Z,7.50
2022-12-18T05:51:51.012Z,6.78
2022-12-18T05:52:25.186Z,7.03
2022-12-18T05:53:00.485Z,7.43
2022-12-18T05:53:35.730Z,8.00
2022-12-18T05:54:10.249Z,7.38
2022-12-18T05:54:44.817Z,6.65
2022-12-18T05:55:19.423Z,6.78
2022-12-18T05:55:53.465Z,7.05
2022-12-18T05:56:28.542Z,6.40
2022-12-18T05:57:02.641Z,6.63
2022-12-18T05:57:37.854Z,7.20
2022-12-18T05:58:12.843Z,6.80
2022-12-18T05:58:47.839Z,6.30
2022-12-18T05:59:22.060Z,6.97
2022-12-18T05:59:55.925Z,6.63
2022-12-18T06:00:30.466Z,7.75
2022-12-18T06:01:11.487Z,7.07
2022-12-18T06:01:46.932Z,6.82
2022-12-18T06:02:22.675Z,6.97
2022-12-18T06:02:57.554Z,7.55
2022-12-18T06:03:34.062Z,7.65
2022-12-18T06:04:09.149Z,6.20
2022-12-18T06:04:44.734Z,6.45
2022-12-18T06:05:18.021Z,6.55
2022-12-18T06:05:52.006Z,7.20
2022-12-18T06:06:29.418Z,7.22
2022-12-18T06:07:06.528Z,6.93
2022-12-18T06:07:41.771Z,6.80
2022-12-18T06:08:16.100Z,6.32
2022-12-18T06:08:51.587Z,7.07
2022-12-18T06:09:25.332Z,7.43
2022-12-18T06:09:59.232Z,6.90
2022-12-18T06:10:34.203Z,6.88
2022-12-18T06:11:07.394Z,6.47
2022-12-18T06:11:41.189Z,6.15
2022-12-18T06:12:16.036Z,6.93
2022-12-18T06:12:50.923Z,6.80
2022-12-18T06:13:25.812Z,7.20
2022-12-18T06:14:02.060Z,6.93
2022-12-18T06:14:36.581Z,6.97
2022-12-18T06:15:12.118Z,6.97
2022-12-18T06:15:46.537Z,6.68
2022-12-18T06:16:22.286Z,6.20
2022-12-18T06:16:55.618Z,6.95
2022-12-18T06:17:32.226Z,6.80
2022-12-18T06:18:06.173Z,7.07
2022-12-18T06:18:40.838Z,6.88
2022-12-18T06:19:18.385Z,6.80
2022-12-18T06:19:52.429Z,7.65
2022-12-18T06:20:31.820Z,6.75
2022-12-18T06:21:09.024Z,6.20
2022-12-18T06:21:42.874Z,6.68
2022-12-18T06:22:17.233Z,6.65
2022-12-18T06:22:52.182Z,6.45
2022-12-18T06:23:26.668Z,6.90
2022-12-18T06:24:01.561Z,6.70
2022-12-18T06:24:37.205Z,6.85
2022-12-18T06:25:11.006Z,6.95
2022-12-18T06:25:46.144Z,7.07
2022-12-18T06:26:26.188Z,7.00
2022-12-18T06:27:01.357Z,6.93
2022-12-18T06:27:35.807Z,6.88
2022-12-18T06:28:10.299Z,7.32
2022-12-18T06:28:46.157Z,6.68
2022-12-18T06:29:21.802Z,6.95
2022-12-18T06:29:56.158Z,6.40
2022-12-18T06:30:32.256Z,6.15
2022-12-18T06:31:06.693Z,7.32
2022-12-18T06:31:42.159Z,7.20
2022-12-18T06:32:18.354Z,6.43
2022-12-18T06:32:56.423Z,6.90
2022-12-18T06:33:30.530Z,6.40
2022-12-18T06:34:07.264Z,6.93
2022-12-18T06:34:45.077Z,7.82
2022-12-18T06:35:18.197Z,6.95
2022-12-18T06:36:00.814Z,7.10
2022-12-18T06:36:35.107Z,7.00
2022-12-18T06:37:08.946Z,6.95
2022-12-18T06:37:43.947Z,6.93
2022-12-18T06:38:19.481Z,6.60
2022-12-18T06:38:53.986Z,7.68
2022-12-18T06:39:31.688Z,7.40
2022-12-18T06:40:07.434Z,7.28
2022-12-18T06:40:40.895Z,7.13
2022-12-18T06:41:17.782Z,7.07
2022-12-18T06:41:51.985Z,6.57
2022-12-18T06:42:26.177Z,7.32
2022-12-18T06:43:00.670Z,7.82
2022-12-18T06:43:35.141Z,6.95
2022-12-18T06:44:09.330Z,7.50
2022-12-18T06:44:47.095Z,7.22
2022-12-18T06:45:21.599Z,7.07
2022-12-18T06:46:06.268Z,7.00
2022-12-18T06:46:47.287Z,6.85
2022-12-18T06:47:21.703Z,6.82
2022-12-18T06:47:55.978Z,7.28
2022-12-18T06:48:31.862Z,6.55
2022-12-18T06:49:05.938Z,6.78
2022-12-18T06:49:40.283Z,7.32
2022-12-18T06:50:17.407Z,7.50
2022-12-18T06:50:53.023Z,7.10
2022-12-18T06:51:27.360Z,6.90
2022-12-18T06:52:02.759Z,7.78
2022-12-18T06:52:36.788Z,6.65
2022-12-18T06:53:11.237Z,7.03
2022-12-18T06:53:46.214Z,7.38
2022-12-18T06:54:20.787Z,7.53
2022-12-18T06:54:56.458Z,7.30
2022-12-18T06:55:32.213Z,7.00
2022-12-18T06:56:10.713Z,8.13
2022-12-18T06:57:21.110Z,6.68
2022-12-18T06:57:55.413Z,12.43
2022-12-18T06:58:29.723Z,6.85
2022-12-18T06:59:05.049Z,7.47
2022-12-18T06:59:39.346Z,7.40
2022-12-18T07:00:15.786Z,7.50
2022-12-18T07:00:51.642Z,7.78
2022-12-18T07:01:25.169Z,6.82
2022-12-18T07:02:07.632Z,6.82
2022-12-18T07:02:41.628Z,7.43
2022-12-18T07:03:16.803Z,7.13
2022-12-18T07:03:55.938Z,7.18
2022-12-18T07:04:30.604Z,7.32
2022-12-18T07:05:10.510Z,6.20
2022-12-18T07:05:46.278Z,6.70
2022-12-18T07:06:21.327Z,6.68
2022-12-18T07:06:55.125Z,6.60
2022-12-18T07:07:31.415Z,6.97
2022-12-18T07:08:06.013Z,6.88
2022-12-18T07:08:39.173Z,6.75
2022-12-18T07:09:14.627Z,7.07
2022-12-18T07:09:48.886Z,7.07
2022-12-18T07:10:22.157Z,6.90
2022-12-18T07:10:58.214Z,7.30
2022-12-18T07:11:34.677Z,7.07
2022-12-18T07:12:10.197Z,6.70
2022-12-18T07:12:43.992Z,7.30
2022-12-18T07:13:17.738Z,7.15
2022-12-18T07:13:52.363Z,6.75
2022-12-18T07:14:26.292Z,6.90
2022-12-18T07:15:01.215Z,6.78
2022-12-18T07:15:37.978Z,6.57
2022-12-18T07:16:20.903Z,7.07
2022-12-18T07:16:57.821Z,6.90
2022-12-18T07:17:34.296Z,6.93
2022-12-18T07:18:08.316Z,6.60
2022-12-18T07:18:43.575Z,6.78
2022-12-18T07:19:18.236Z,6.80
2022-12-18T07:19:54.695Z,6.65
2022-12-18T07:20:28.614Z,6.93
2022-12-18T07:21:05.969Z,7.07
2022-12-18T07:21:41.547Z,6.95
2022-12-18T07:22:16.088Z,6.70
2022-12-18T07:22:56.041Z,6.75
2022-12-18T07:24:07.686Z,6.30
2022-12-18T07:24:41.134Z,6.35
2022-12-18T07:25:18.227Z,6.63
2022-12-18T07:25:53.735Z,6.95
2022-12-18T07:26:29.129Z,6.78
2022-12-18T07:27:03.588Z,6.80
2022-12-18T07:27:39.019Z,6.45
2022-12-18T07:28:17.317Z,7.25
2022-12-18T07:28:52.504Z,6.32
2022-12-18T07:29:28.367Z,7.13
2022-12-18T07:30:02.063Z,7.28
2022-12-18T07:30:38.789Z,6.68
2022-12-18T07:31:17.121Z,7.35
2022-12-18T07:31:52.299Z,6.95
2022-12-18T07:32:25.527Z,6.93
2022-12-18T07:33:02.894Z,8.00
2022-12-18T07:33:36.532Z,6.97
2022-12-18T07:34:13.587Z,6.53
2022-12-18T07:34:48.943Z,7.05
2022-12-18T07:35:25.113Z,6.47
2022-12-18T07:36:00.411Z,7.43
2022-12-18T07:36:37.020Z,7.60
2022-12-18T07:37:10.911Z,6.95
2022-12-18T07:37:47.246Z,7.38
2022-12-18T07:38:21.551Z,7.10
2022-12-18T07:38:57.914Z,6.72
2022-12-18T07:39:32.945Z,7.03
2022-12-18T07:40:10.667Z,7.65
2022-12-18T07:40:44.538Z,7.15
2022-12-18T07:41:20.255Z,7.07
2022-12-18T07:42:08.869Z,7.47
2022-12-18T07:42:44.538Z,6.82
2022-12-18T07:43:18.403Z,7.00
2022-12-18T07:43:51.974Z,6.68
2022-12-18T07:44:28.786Z,7.15
2022-12-18T07:45:03.692Z,7.15
2022-12-18T07:45:38.449Z,7.57
2022-12-18T07:46:17.418Z,6.70
2022-12-18T07:46:52.434Z,7.57
2022-12-18T07:47:26.808Z,7.10
2022-12-18T07:48:06.167Z,6.90
2022-12-18T07:48:40.070Z,29.27
2022-12-18T07:49:13.910Z,45.25
2022-12-18T07:49:49.248Z,19.55
2022-12-18T07:50:24.182Z,78.57
2022-12-18T07:51:00.291Z,67.35
2022-12-18T07:51:35.802Z,12.50
2022-12-18T07:52:11.111Z,28.02
2022-12-18T07:52:46.120Z,9.50
2022-12-18T07:53:21.071Z,7.22
2022-12-18T07:53:55.654Z,8.55
2022-12-18T07:54:31.101Z,7.35
2022-12-18T07:55:08.187Z,8.55
2022-12-18T07:56:17.750Z,6.85
2022-12-18T07:56:38.288Z,6.10
2022-12-18T07:57:27.320Z,6.20
2022-12-18T07:58:07.706Z,6.60
2022-12-18T07:58:42.658Z,6.57
2022-12-18T07:59:18.121Z,7.38
2022-12-18T07:59:51.866Z,6.97
2022-12-18T08:00:27.341Z,7.13
2022-12-18T08:01:06.290Z,7.75
2022-12-18T08:01:41.655Z,7.55
2022-12-18T08:02:17.416Z,6.93
2022-12-18T08:02:52.752Z,7.30
2022-12-18T08:03:29.422Z,7.43
2022-12-18T08:04:04.337Z,6.57
2022-12-18T08:04:39.372Z,6.70
2022-12-18T08:05:12.956Z,6.95
2022-12-18T08:05:47.924Z,7.05
2022-12-18T08:06:23.765Z,7.03
2022-12-18T08:07:00.139Z,7.90
2022-12-18T08:07:34.594Z,7.30
2022-12-18T08:08:11.157Z,7.40
2022-12-18T08:08:46.308Z,7.40
2022-12-18T08:09:20.979Z,9.95
2022-12-18T08:09:53.757Z,7.13
2022-12-18T08:10:28.835Z,8.02
2022-12-18T08:11:04.903Z,7.25
2022-12-18T08:11:38.582Z,7.65
2022-12-18T08:12:14.063Z,7.75
2022-12-18T08:12:51.327Z,6.97